sensor_id;sensor_type;location;lat;lon;timestamp;P1;durP1;ratioP1;P2;durP2;ratioP2
21424;SDS011;10873;51.132;16.848;2022-12-15T00:02:56;73.40;;;46.20;;
21424;SDS011;10873;51.132;16.848;2022-12-15T00:05:48;76.13;;;46.10;;
21424;SDS011;10873;51.132;16.848;2022-12-15T00:08:32;72.88;;;45.58;;
21424;SDS011;10873;51.132;16.848;2022-12-15T00:11:17;70.53;;;44.78;;
21424;SDS011;10873;51.132;16.848;2022-12-15T00:14:03;73.13;;;44.42;;
21424;SDS011;10873;51.132;16.848;2022-12-15T00:16:51;74.28;;;44.95;;
21424;SDS011;10873;51.132;16.848;2022-12-15T00:19:35;72.57;;;44.25;;
21424;SDS011;10873;51.132;16.848;2022-12-15T00:22:25;72.45;;;45.03;;
21424;SDS011;10873;51.132;16.848;2022-12-15T00:25:11;71.30;;;44.30;;
21424;SDS011;10873;51.132;16.848;2022-12-15T00:27:43;71.57;;;44.42;;
21424;SDS011;10873;51.132;16.848;2022-12-15T00:30:28;68.40;;;43.90;;
21424;SDS011;10873;51.132;16.848;2022-12-15T00:33:12;74.53;;;44.70;;
21424;SDS011;10873;51.132;16.848;2022-12-15T00:35:57;71.45;;;44.97;;
21424;SDS011;10873;51.132;16.848;2022-12-15T00:38:43;70.82;;;44.75;;
21424;SDS011;10873;51.132;16.848;2022-12-15T00:41:10;70.20;;;44.53;;
21424;SDS011;10873;51.132;16.848;2022-12-15T00:43:37;71.10;;;44.33;;
21424;SDS011;10873;51.132;16.848;2022-12-15T00:46:03;72.65;;;44.38;;
21424;SDS011;10873;51.132;16.848;2022-12-15T00:48:49;74.50;;;44.55;;
21424;SDS011;10873;51.132;16.848;2022-12-15T00:51:15;72.90;;;45.28;;
21424;SDS011;10873;51.132;16.848;2022-12-15T00:53:43;73.75;;;44.67;;
21424;SDS011;10873;51.132;16.848;2022-12-15T00:56:29;69.18;;;43.25;;
21424;SDS011;10873;51.132;16.848;2022-12-15T00:59:13;73.00;;;44.42;;
21424;SDS011;10873;51.132;16.848;2022-12-15T01:01:59;65.22;;;41.58;;
21424;SDS011;10873;51.132;16.848;2022-12-15T01:04:44;69.70;;;42.47;;
21424;SDS011;10873;51.132;16.848;2022-12-15T01:07:29;71.32;;;43.05;;
21424;SDS011;10873;51.132;16.848;2022-12-15T01:10:15;68.15;;;42.85;;
21424;SDS011;10873;51.132;16.848;2022-12-15T01:13:00;67.38;;;42.35;;
21424;SDS011;10873;51.132;16.848;2022-12-15T01:15:45;62.65;;;41.13;;
21424;SDS011;10873;51.132;16.848;2022-12-15T01:18:34;66.47;;;40.67;;
21424;SDS011;10873;51.132;16.848;2022-12-15T01:21:21;66.18;;;40.30;;
21424;SDS011;10873;51.132;16.848;2022-12-15T01:23:47;64.97;;;40.90;;
21424;SDS011;10873;51.132;16.848;2022-12-15T01:26:15;63.58;;;40.53;;
21424;SDS011;10873;51.132;16.848;2022-12-15T01:28:41;60.80;;;38.85;;
21424;SDS011;10873;51.132;16.848;2022-12-15T01:31:08;57.45;;;38.33;;
21424;SDS011;10873;51.132;16.848;2022-12-15T01:33:38;60.72;;;38.80;;
21424;SDS011;10873;51.132;16.848;2022-12-15T01:36:08;60.83;;;39.60;;
21424;SDS011;10873;51.132;16.848;2022-12-15T01:38:39;61.38;;;39.67;;
21424;SDS011;10873;51.132;16.848;2022-12-15T01:41:09;62.83;;;39.30;;
21424;SDS011;10873;51.132;16.848;2022-12-15T01:43:39;60.47;;;39.42;;
21424;SDS011;10873;51.132;16.848;2022-12-15T01:46:06;62.43;;;38.70;;
21424;SDS011;10873;51.132;16.848;2022-12-15T01:48:40;59.40;;;39.22;;
21424;SDS011;10873;51.132;16.848;2022-12-15T01:51:24;58.73;;;37.90;;
21424;SDS011;10873;51.132;16.848;2022-12-15T01:53:56;57.72;;;37.85;;
21424;SDS011;10873;51.132;16.848;2022-12-15T01:56:26;59.33;;;37.33;;
21424;SDS011;10873;51.132;16.848;2022-12-15T01:58:58;54.05;;;36.33;;
21424;SDS011;10873;51.132;16.848;2022-12-15T02:01:29;58.50;;;36.88;;
21424;SDS011;10873;51.132;16.848;2022-12-15T02:03:57;54.25;;;35.55;;
21424;SDS011;10873;51.132;16.848;2022-12-15T02:06:27;56.45;;;36.38;;
21424;SDS011;10873;51.132;16.848;2022-12-15T02:08:55;56.03;;;36.47;;
21424;SDS011;10873;51.132;16.848;2022-12-15T02:14:27;52.77;;;34.27;;
21424;SDS011;10873;51.132;16.848;2022-12-15T02:17:20;57.47;;;36.30;;
21424;SDS011;10873;51.132;16.848;2022-12-15T02:20:04;51.70;;;35.33;;
21424;SDS011;10873;51.132;16.848;2022-12-15T02:33:45;51.83;;;33.50;;
21424;SDS011;10873;51.132;16.848;2022-12-15T02:36:17;53.90;;;34.05;;
21424;SDS011;10873;51.132;16.848;2022-12-15T02:38:50;49.03;;;33.03;;
21424;SDS011;10873;51.132;16.848;2022-12-15T02:41:36;51.33;;;33.75;;
21424;SDS011;10873;51.132;16.848;2022-12-15T02:44:05;50.28;;;32.22;;
21424;SDS011;10873;51.132;16.848;2022-12-15T02:46:35;51.45;;;33.05;;
21424;SDS011;10873;51.132;16.848;2022-12-15T02:49:18;48.10;;;31.95;;
21424;SDS011;10873;51.132;16.848;2022-12-15T02:51:52;52.47;;;33.25;;
21424;SDS011;10873;51.132;16.848;2022-12-15T02:54:34;48.80;;;31.75;;
21424;SDS011;10873;51.132;16.848;2022-12-15T02:57:11;49.10;;;32.17;;
21424;SDS011;10873;51.132;16.848;2022-12-15T02:59:45;48.90;;;32.85;;
21424;SDS011;10873;51.132;16.848;2022-12-15T03:02:20;52.88;;;33.20;;
21424;SDS011;10873;51.132;16.848;2022-12-15T03:04:49;53.05;;;34.13;;
21424;SDS011;10873;51.132;16.848;2022-12-15T03:07:16;50.20;;;33.28;;
21424;SDS011;10873;51.132;16.848;2022-12-15T03:09:42;48.33;;;32.28;;
21424;SDS011;10873;51.132;16.848;2022-12-15T03:12:09;49.72;;;32.13;;
21424;SDS011;10873;51.132;16.848;2022-12-15T03:14:35;48.88;;;31.88;;
21424;SDS011;10873;51.132;16.848;2022-12-15T03:17:01;49.47;;;32.15;;
21424;SDS011;10873;51.132;16.848;2022-12-15T03:19:28;49.28;;;32.42;;
21424;SDS011;10873;51.132;16.848;2022-12-15T03:21:55;47.78;;;31.10;;
21424;SDS011;10873;51.132;16.848;2022-12-15T03:24:21;47.28;;;31.83;;
21424;SDS011;10873;51.132;16.848;2022-12-15T03:26:47;47.72;;;30.63;;
21424;SDS011;10873;51.132;16.848;2022-12-15T03:29:14;47.88;;;30.80;;
21424;SDS011;10873;51.132;16.848;2022-12-15T03:31:41;44.85;;;30.35;;
21424;SDS011;10873;51.132;16.848;2022-12-15T03:34:07;45.22;;;29.85;;
21424;SDS011;10873;51.132;16.848;2022-12-15T03:36:33;48.35;;;30.70;;
21424;SDS011;10873;51.132;16.848;2022-12-15T03:39:00;45.35;;;29.88;;
21424;SDS011;10873;51.132;16.848;2022-12-15T03:41:26;43.45;;;28.90;;
21424;SDS011;10873;51.132;16.848;2022-12-15T03:43:52;42.80;;;29.15;;
21424;SDS011;10873;51.132;16.848;2022-12-15T03:46:18;42.63;;;28.85;;
21424;SDS011;10873;51.132;16.848;2022-12-15T03:48:44;43.28;;;28.63;;
21424;SDS011;10873;51.132;16.848;2022-12-15T03:51:10;40.75;;;27.92;;
21424;SDS011;10873;51.132;16.848;2022-12-15T03:53:36;42.15;;;27.52;;
21424;SDS011;10873;51.132;16.848;2022-12-15T03:56:04;38.25;;;26.25;;
21424;SDS011;10873;51.132;16.848;2022-12-15T03:58:31;42.75;;;27.75;;
21424;SDS011;10873;51.132;16.848;2022-12-15T04:00:57;37.50;;;25.63;;
21424;SDS011;10873;51.132;16.848;2022-12-15T04:03:23;39.00;;;26.63;;
21424;SDS011;10873;51.132;16.848;2022-12-15T04:05:49;38.25;;;25.85;;
21424;SDS011;10873;51.132;16.848;2022-12-15T04:08:15;35.38;;;25.33;;
21424;SDS011;10873;51.132;16.848;2022-12-15T04:10:41;34.35;;;25.20;;
21424;SDS011;10873;51.132;16.848;2022-12-15T04:13:09;36.67;;;25.20;;
21424;SDS011;10873;51.132;16.848;2022-12-15T04:15:36;36.90;;;25.40;;
21424;SDS011;10873;51.132;16.848;2022-12-15T04:18:18;37.55;;;25.27;;
21424;SDS011;10873;51.132;16.848;2022-12-15T04:20:45;34.70;;;25.17;;
21424;SDS011;10873;51.132;16.848;2022-12-15T04:23:13;34.63;;;24.77;;
21424;SDS011;10873;51.132;16.848;2022-12-15T04:25:59;34.92;;;24.85;;
21424;SDS011;10873;51.132;16.848;2022-12-15T04:28:46;37.30;;;25.05;;
21424;SDS011;10873;51.132;16.848;2022-12-15T04:31:31;35.00;;;24.73;;
21424;SDS011;10873;51.132;16.848;2022-12-15T04:34:18;32.60;;;22.92;;
21424;SDS011;10873;51.132;16.848;2022-12-15T04:37:11;36.43;;;23.97;;
21424;SDS011;10873;51.132;16.848;2022-12-15T04:39:56;37.78;;;24.52;;
21424;SDS011;10873;51.132;16.848;2022-12-15T04:42:44;35.75;;;24.38;;
21424;SDS011;10873;51.132;16.848;2022-12-15T04:45:31;38.67;;;23.98;;
21424;SDS011;10873;51.132;16.848;2022-12-15T04:48:16;35.67;;;24.50;;
21424;SDS011;10873;51.132;16.848;2022-12-15T04:51:00;35.80;;;24.55;;
21424;SDS011;10873;51.132;16.848;2022-12-15T04:53:45;34.53;;;23.13;;
21424;SDS011;10873;51.132;16.848;2022-12-15T04:56:30;33.47;;;23.17;;
21424;SDS011;10873;51.132;16.848;2022-12-15T04:59:15;32.55;;;22.85;;
21424;SDS011;10873;51.132;16.848;2022-12-15T05:02:01;32.83;;;23.40;;
21424;SDS011;10873;51.132;16.848;2022-12-15T05:04:46;33.33;;;22.33;;
21424;SDS011;10873;51.132;16.848;2022-12-15T05:07:31;32.63;;;22.85;;
21424;SDS011;10873;51.132;16.848;2022-12-15T05:10:16;33.05;;;23.20;;
21424;SDS011;10873;51.132;16.848;2022-12-15T05:13:16;32.30;;;23.13;;
21424;SDS011;10873;51.132;16.848;2022-12-15T05:16:01;33.45;;;23.27;;
21424;SDS011;10873;51.132;16.848;2022-12-15T05:18:49;33.33;;;22.48;;
21424;SDS011;10873;51.132;16.848;2022-12-15T05:21:34;30.95;;;21.60;;
21424;SDS011;10873;51.132;16.848;2022-12-15T05:24:18;32.97;;;22.13;;
21424;SDS011;10873;51.132;16.848;2022-12-15T05:27:04;30.45;;;21.75;;
21424;SDS011;10873;51.132;16.848;2022-12-15T05:29:48;28.48;;;20.67;;
21424;SDS011;10873;51.132;16.848;2022-12-15T05:32:35;28.83;;;21.00;;
21424;SDS011;10873;51.132;16.848;2022-12-15T05:35:07;30.08;;;21.10;;
21424;SDS011;10873;51.132;16.848;2022-12-15T05:37:33;33.13;;;22.10;;
21424;SDS011;10873;51.132;16.848;2022-12-15T05:40:02;30.85;;;20.25;;
21424;SDS011;10873;51.132;16.848;2022-12-15T05:42:31;28.85;;;20.58;;
21424;SDS011;10873;51.132;16.848;2022-12-15T05:44:58;30.95;;;20.98;;
21424;SDS011;10873;51.132;16.848;2022-12-15T05:47:24;32.40;;;22.00;;
21424;SDS011;10873;51.132;16.848;2022-12-15T05:49:50;30.58;;;22.65;;
21424;SDS011;10873;51.132;16.848;2022-12-15T05:52:18;32.30;;;21.58;;
21424;SDS011;10873;51.132;16.848;2022-12-15T05:54:46;31.67;;;21.58;;
21424;SDS011;10873;51.132;16.848;2022-12-15T05:57:12;28.50;;;21.73;;
21424;SDS011;10873;51.132;16.848;2022-12-15T05:59:38;32.22;;;21.98;;
21424;SDS011;10873;51.132;16.848;2022-12-15T06:02:05;30.08;;;22.55;;
21424;SDS011;10873;51.132;16.848;2022-12-15T06:04:31;34.28;;;22.27;;
21424;SDS011;10873;51.132;16.848;2022-12-15T06:06:57;30.23;;;21.90;;
21424;SDS011;10873;51.132;16.848;2022-12-15T06:09:24;31.27;;;22.40;;
21424;SDS011;10873;51.132;16.848;2022-12-15T06:11:50;31.17;;;22.35;;
21424;SDS011;10873;51.132;16.848;2022-12-15T06:14:18;30.95;;;22.08;;
21424;SDS011;10873;51.132;16.848;2022-12-15T06:16:44;31.70;;;23.05;;
21424;SDS011;10873;51.132;16.848;2022-12-15T06:19:10;32.67;;;22.23;;
21424;SDS011;10873;51.132;16.848;2022-12-15T06:21:37;32.45;;;22.33;;
21424;SDS011;10873;51.132;16.848;2022-12-15T06:24:03;30.23;;;21.25;;
21424;SDS011;10873;51.132;16.848;2022-12-15T06:26:33;29.65;;;21.92;;
21424;SDS011;10873;51.132;16.848;2022-12-15T06:29:03;30.03;;;21.50;;
21424;SDS011;10873;51.132;16.848;2022-12-15T06:31:30;30.00;;;21.50;;
21424;SDS011;10873;51.132;16.848;2022-12-15T06:34:01;28.20;;;20.95;;
21424;SDS011;10873;51.132;16.848;2022-12-15T06:36:28;28.45;;;20.95;;
21424;SDS011;10873;51.132;16.848;2022-12-15T06:38:58;28.83;;;20.40;;
21424;SDS011;10873;51.132;16.848;2022-12-15T06:41:25;29.27;;;20.53;;
21424;SDS011;10873;51.132;16.848;2022-12-15T06:43:53;28.53;;;19.90;;
21424;SDS011;10873;51.132;16.848;2022-12-15T06:46:23;28.38;;;20.35;;
21424;SDS011;10873;51.132;16.848;2022-12-15T06:48:55;27.23;;;20.00;;
21424;SDS011;10873;51.132;16.848;2022-12-15T06:51:22;29.58;;;20.17;;
21424;SDS011;10873;51.132;16.848;2022-12-15T06:53:58;35.20;;;18.42;;
21424;SDS011;10873;51.132;16.848;2022-12-15T06:57:05;23.10;;;16.93;;
21424;SDS011;10873;51.132;16.848;2022-12-15T06:59:32;23.75;;;17.30;;
21424;SDS011;10873;51.132;16.848;2022-12-15T07:01:58;22.27;;;16.30;;
21424;SDS011;10873;51.132;16.848;2022-12-15T07:04:24;24.83;;;17.20;;
21424;SDS011;10873;51.132;16.848;2022-12-15T07:06:51;24.17;;;17.63;;
21424;SDS011;10873;51.132;16.848;2022-12-15T07:09:17;24.35;;;16.48;;
21424;SDS011;10873;51.132;16.848;2022-12-15T07:11:43;23.90;;;17.27;;
21424;SDS011;10873;51.132;16.848;2022-12-15T07:14:10;23.65;;;17.35;;
21424;SDS011;10873;51.132;16.848;2022-12-15T07:16:38;23.17;;;16.10;;
21424;SDS011;10873;51.132;16.848;2022-12-15T07:19:05;25.50;;;17.97;;
21424;SDS011;10873;51.132;16.848;2022-12-15T07:21:33;23.58;;;17.50;;
21424;SDS011;10873;51.132;16.848;2022-12-15T07:23:59;23.53;;;16.67;;
21424;SDS011;10873;51.132;16.848;2022-12-15T07:26:25;24.40;;;17.67;;
21424;SDS011;10873;51.132;16.848;2022-12-15T07:28:52;21.00;;;15.87;;
21424;SDS011;10873;51.132;16.848;2022-12-15T07:31:18;24.87;;;17.70;;
21424;SDS011;10873;51.132;16.848;2022-12-15T07:33:45;22.43;;;16.87;;
21424;SDS011;10873;51.132;16.848;2022-12-15T07:36:12;22.77;;;16.63;;
21424;SDS011;10873;51.132;16.848;2022-12-15T07:38:38;23.10;;;15.73;;
21424;SDS011;10873;51.132;16.848;2022-12-15T07:41:05;21.60;;;16.07;;
21424;SDS011;10873;51.132;16.848;2022-12-15T07:43:33;22.00;;;16.10;;
21424;SDS011;10873;51.132;16.848;2022-12-15T07:45:59;20.00;;;15.43;;
21424;SDS011;10873;51.132;16.848;2022-12-15T07:48:25;22.70;;;16.80;;
21424;SDS011;10873;51.132;16.848;2022-12-15T07:50:53;20.87;;;15.97;;
21424;SDS011;10873;51.132;16.848;2022-12-15T07:53:22;22.33;;;15.63;;
21424;SDS011;10873;51.132;16.848;2022-12-15T07:55:53;19.03;;;15.30;;
21424;SDS011;10873;51.132;16.848;2022-12-15T07:58:20;21.70;;;16.17;;
21424;SDS011;10873;51.132;16.848;2022-12-15T08:00:46;20.43;;;15.50;;
21424;SDS011;10873;51.132;16.848;2022-12-15T08:03:12;19.33;;;15.33;;
21424;SDS011;10873;51.132;16.848;2022-12-15T08:05:38;19.73;;;15.10;;
21424;SDS011;10873;51.132;16.848;2022-12-15T08:08:05;19.60;;;15.23;;
21424;SDS011;10873;51.132;16.848;2022-12-15T08:10:31;22.30;;;15.57;;
21424;SDS011;10873;51.132;16.848;2022-12-15T08:12:57;21.07;;;14.80;;
21424;SDS011;10873;51.132;16.848;2022-12-15T08:15:23;18.88;;;14.70;;
21424;SDS011;10873;51.132;16.848;2022-12-15T08:17:49;18.30;;;13.83;;
21424;SDS011;10873;51.132;16.848;2022-12-15T08:20:16;17.70;;;14.00;;
21424;SDS011;10873;51.132;16.848;2022-12-15T08:22:41;19.73;;;15.57;;
21424;SDS011;10873;51.132;16.848;2022-12-15T08:25:09;19.13;;;14.23;;
21424;SDS011;10873;51.132;16.848;2022-12-15T08:27:35;17.60;;;14.00;;
21424;SDS011;10873;51.132;16.848;2022-12-15T08:30:01;20.33;;;14.13;;
21424;SDS011;10873;51.132;16.848;2022-12-15T08:32:28;18.07;;;13.73;;
21424;SDS011;10873;51.132;16.848;2022-12-15T08:34:54;19.00;;;13.70;;
21424;SDS011;10873;51.132;16.848;2022-12-15T08:37:20;17.77;;;14.10;;
21424;SDS011;10873;51.132;16.848;2022-12-15T08:39:46;19.23;;;14.47;;
21424;SDS011;10873;51.132;16.848;2022-12-15T08:42:13;18.10;;;14.07;;
21424;SDS011;10873;51.132;16.848;2022-12-15T08:44:39;18.23;;;14.27;;
21424;SDS011;10873;51.132;16.848;2022-12-15T08:47:05;17.85;;;12.85;;
21424;SDS011;10873;51.132;16.848;2022-12-15T08:49:32;15.70;;;12.50;;
21424;SDS011;10873;51.132;16.848;2022-12-15T08:51:58;19.13;;;12.43;;
21424;SDS011;10873;51.132;16.848;2022-12-15T08:54:24;15.63;;;12.60;;
21424;SDS011;10873;51.132;16.848;2022-12-15T08:56:50;15.07;;;11.43;;
21424;SDS011;10873;51.132;16.848;2022-12-15T08:59:17;14.57;;;11.63;;
21424;SDS011;10873;51.132;16.848;2022-12-15T09:01:43;13.37;;;11.10;;
21424;SDS011;10873;51.132;16.848;2022-12-15T09:04:09;18.87;;;12.43;;
21424;SDS011;10873;51.132;16.848;2022-12-15T09:06:35;15.73;;;11.23;;
21424;SDS011;10873;51.132;16.848;2022-12-15T09:09:03;13.87;;;11.00;;
21424;SDS011;10873;51.132;16.848;2022-12-15T09:11:33;16.23;;;11.80;;
21424;SDS011;10873;51.132;16.848;2022-12-15T09:14:00;13.30;;;10.67;;
21424;SDS011;10873;51.132;16.848;2022-12-15T09:16:27;15.07;;;11.63;;
21424;SDS011;10873;51.132;16.848;2022-12-15T09:18:54;15.67;;;11.53;;
21424;SDS011;10873;51.132;16.848;2022-12-15T09:21:21;14.20;;;10.90;;
21424;SDS011;10873;51.132;16.848;2022-12-15T09:23:51;13.80;;;10.87;;
21424;SDS011;10873;51.132;16.848;2022-12-15T09:26:19;14.90;;;11.60;;
21424;SDS011;10873;51.132;16.848;2022-12-15T09:28:46;15.33;;;11.27;;
21424;SDS011;10873;51.132;16.848;2022-12-15T09:31:14;17.67;;;12.07;;
21424;SDS011;10873;51.132;16.848;2022-12-15T09:33:43;13.83;;;11.23;;
21424;SDS011;10873;51.132;16.848;2022-12-15T09:36:09;15.53;;;11.93;;
21424;SDS011;10873;51.132;16.848;2022-12-15T09:38:37;13.53;;;11.43;;
21424;SDS011;10873;51.132;16.848;2022-12-15T09:41:08;15.77;;;12.40;;
21424;SDS011;10873;51.132;16.848;2022-12-15T09:43:49;16.40;;;12.53;;
21424;SDS011;10873;51.132;16.848;2022-12-15T09:46:20;15.73;;;12.77;;
21424;SDS011;10873;51.132;16.848;2022-12-15T09:49:01;16.37;;;12.90;;
21424;SDS011;10873;51.132;16.848;2022-12-15T09:51:34;17.80;;;13.23;;
21424;SDS011;10873;51.132;16.848;2022-12-15T09:54:07;16.83;;;12.60;;
21424;SDS011;10873;51.132;16.848;2022-12-15T09:56:36;16.47;;;13.17;;
21424;SDS011;10873;51.132;16.848;2022-12-15T09:59:09;18.53;;;13.20;;
21424;SDS011;10873;51.132;16.848;2022-12-15T10:01:46;17.77;;;12.70;;
21424;SDS011;10873;51.132;16.848;2022-12-15T10:04:22;16.13;;;12.83;;
21424;SDS011;10873;51.132;16.848;2022-12-15T10:06:59;16.20;;;13.10;;
21424;SDS011;10873;51.132;16.848;2022-12-15T10:09:31;16.80;;;13.13;;
21424;SDS011;10873;51.132;16.848;2022-12-15T10:11:58;18.07;;;13.80;;
21424;SDS011;10873;51.132;16.848;2022-12-15T10:14:27;18.27;;;12.50;;
21424;SDS011;10873;51.132;16.848;2022-12-15T10:33:56;16.60;;;12.80;;
21424;SDS011;10873;51.132;16.848;2022-12-15T10:37:20;17.17;;;12.87;;
21424;SDS011;10873;51.132;16.848;2022-12-15T10:40:08;17.60;;;13.50;;
21424;SDS011;10873;51.132;16.848;2022-12-15T10:42:43;15.10;;;12.50;;
21424;SDS011;10873;51.132;16.848;2022-12-15T10:45:27;19.07;;;13.83;;
21424;SDS011;10873;51.132;16.848;2022-12-15T10:47:56;16.23;;;13.40;;
21424;SDS011;10873;51.132;16.848;2022-12-15T10:50:27;16.60;;;13.50;;
21424;SDS011;10873;51.132;16.848;2022-12-15T10:52:53;18.37;;;13.97;;
21424;SDS011;10873;51.132;16.848;2022-12-15T10:55:31;17.10;;;13.67;;
21424;SDS011;10873;51.132;16.848;2022-12-15T10:58:02;18.80;;;14.40;;
21424;SDS011;10873;51.132;16.848;2022-12-15T11:00:31;17.53;;;13.80;;
21424;SDS011;10873;51.132;16.848;2022-12-15T11:02:58;17.17;;;13.70;;
21424;SDS011;10873;51.132;16.848;2022-12-15T11:05:24;17.87;;;14.13;;
21424;SDS011;10873;51.132;16.848;2022-12-15T11:07:51;18.77;;;14.53;;
21424;SDS011;10873;51.132;16.848;2022-12-15T11:10:19;18.97;;;14.33;;
21424;SDS011;10873;51.132;16.848;2022-12-15T11:12:58;19.77;;;14.57;;
21424;SDS011;10873;51.132;16.848;2022-12-15T11:15:40;16.70;;;13.90;;
21424;SDS011;10873;51.132;16.848;2022-12-15T11:18:15;17.37;;;13.90;;
21424;SDS011;10873;51.132;16.848;2022-12-15T11:20:51;19.10;;;13.83;;
21424;SDS011;10873;51.132;16.848;2022-12-15T11:23:23;20.07;;;14.17;;
21424;SDS011;10873;51.132;16.848;2022-12-15T11:25:58;19.03;;;14.50;;
21424;SDS011;10873;51.132;16.848;2022-12-15T11:28:31;17.40;;;13.93;;
21424;SDS011;10873;51.132;16.848;2022-12-15T11:31:05;19.10;;;14.63;;
21424;SDS011;10873;51.132;16.848;2022-12-15T11:33:38;17.80;;;14.43;;
21424;SDS011;10873;51.132;16.848;2022-12-15T11:36:07;19.97;;;14.90;;
21424;SDS011;10873;51.132;16.848;2022-12-15T11:38:40;19.67;;;15.10;;
21424;SDS011;10873;51.132;16.848;2022-12-15T11:41:12;19.63;;;14.67;;
21424;SDS011;10873;51.132;16.848;2022-12-15T11:43:53;20.20;;;15.43;;
21424;SDS011;10873;51.132;16.848;2022-12-15T11:46:40;22.23;;;15.23;;
21424;SDS011;10873;51.132;16.848;2022-12-15T11:49:26;21.17;;;15.77;;
21424;SDS011;10873;51.132;16.848;2022-12-15T11:52:04;21.60;;;14.93;;
21424;SDS011;10873;51.132;16.848;2022-12-15T11:54:37;19.87;;;15.33;;
21424;SDS011;10873;51.132;16.848;2022-12-15T11:57:14;21.63;;;15.63;;
21424;SDS011;10873;51.132;16.848;2022-12-15T12:00:01;20.33;;;14.90;;
21424;SDS011;10873;51.132;16.848;2022-12-15T12:02:38;20.53;;;15.73;;
21424;SDS011;10873;51.132;16.848;2022-12-15T12:05:20;20.53;;;15.47;;
21424;SDS011;10873;51.132;16.848;2022-12-15T12:08:11;19.63;;;15.03;;
21424;SDS011;10873;51.132;16.848;2022-12-15T12:10:45;20.43;;;15.63;;
21424;SDS011;10873;51.132;16.848;2022-12-15T12:13:21;20.87;;;15.23;;
21424;SDS011;10873;51.132;16.848;2022-12-15T12:15:53;21.00;;;15.63;;
21424;SDS011;10873;51.132;16.848;2022-12-15T12:18:29;21.03;;;15.47;;
21424;SDS011;10873;51.132;16.848;2022-12-15T12:20:59;19.97;;;15.63;;
21424;SDS011;10873;51.132;16.848;2022-12-15T12:23:30;19.93;;;15.40;;
21424;SDS011;10873;51.132;16.848;2022-12-15T12:26:03;19.90;;;15.40;;
21424;SDS011;10873;51.132;16.848;2022-12-15T12:28:38;21.70;;;16.07;;
21424;SDS011;10873;51.132;16.848;2022-12-15T12:31:14;19.23;;;14.87;;
21424;SDS011;10873;51.132;16.848;2022-12-15T12:33:48;19.03;;;14.83;;
21424;SDS011;10873;51.132;16.848;2022-12-15T12:36:18;19.80;;;14.37;;
21424;SDS011;10873;51.132;16.848;2022-12-15T12:38:46;20.27;;;15.77;;
21424;SDS011;10873;51.132;16.848;2022-12-15T12:41:15;21.33;;;15.33;;
21424;SDS011;10873;51.132;16.848;2022-12-15T12:43:50;21.00;;;16.10;;
21424;SDS011;10873;51.132;16.848;2022-12-15T12:46:20;20.67;;;15.47;;
21424;SDS011;10873;51.132;16.848;2022-12-15T12:48:54;19.13;;;15.20;;
21424;SDS011;10873;51.132;16.848;2022-12-15T12:51:27;20.07;;;15.23;;
21424;SDS011;10873;51.132;16.848;2022-12-15T12:53:56;19.33;;;15.40;;
21424;SDS011;10873;51.132;16.848;2022-12-15T12:56:33;18.93;;;14.77;;
21424;SDS011;10873;51.132;16.848;2022-12-15T12:59:03;19.83;;;15.37;;
21424;SDS011;10873;51.132;16.848;2022-12-15T13:01:50;19.80;;;15.83;;
21424;SDS011;10873;51.132;16.848;2022-12-15T13:10:00;20.67;;;16.27;;
21424;SDS011;10873;51.132;16.848;2022-12-15T13:12:35;21.47;;;16.40;;
21424;SDS011;10873;51.132;16.848;2022-12-15T13:15:11;22.73;;;16.57;;
21424;SDS011;10873;51.132;16.848;2022-12-15T13:17:43;21.50;;;16.37;;
21424;SDS011;10873;51.132;16.848;2022-12-15T13:20:16;20.37;;;15.27;;
21424;SDS011;10873;51.132;16.848;2022-12-15T13:22:54;20.17;;;15.80;;
21424;SDS011;10873;51.132;16.848;2022-12-15T13:25:41;20.57;;;15.63;;
21424;SDS011;10873;51.132;16.848;2022-12-15T13:28:22;20.90;;;15.33;;
21424;SDS011;10873;51.132;16.848;2022-12-15T13:34:16;20.07;;;15.57;;
21424;SDS011;10873;51.132;16.848;2022-12-15T13:36:55;21.23;;;15.23;;
21424;SDS011;10873;51.132;16.848;2022-12-15T13:42:31;20.40;;;15.53;;
21424;SDS011;10873;51.132;16.848;2022-12-15T13:45:09;20.87;;;15.93;;
21424;SDS011;10873;51.132;16.848;2022-12-15T13:47:52;19.50;;;13.87;;
21424;SDS011;10873;51.132;16.848;2022-12-15T13:50:26;20.53;;;11.77;;
21424;SDS011;10873;51.132;16.848;2022-12-15T13:52:56;20.30;;;11.60;;
21424;SDS011;10873;51.132;16.848;2022-12-15T13:55:28;21.77;;;13.27;;
21424;SDS011;10873;51.132;16.848;2022-12-15T13:58:01;21.30;;;13.27;;
21424;SDS011;10873;51.132;16.848;2022-12-15T14:00:30;19.07;;;13.03;;
21424;SDS011;10873;51.132;16.848;2022-12-15T14:03:02;20.13;;;13.00;;
21424;SDS011;10873;51.132;16.848;2022-12-15T14:05:31;20.43;;;13.50;;
21424;SDS011;10873;51.132;16.848;2022-12-15T14:07:58;20.00;;;14.47;;
21424;SDS011;10873;51.132;16.848;2022-12-15T14:10:29;18.23;;;13.93;;
21424;SDS011;10873;51.132;16.848;2022-12-15T14:13:05;23.50;;;13.63;;
21424;SDS011;10873;51.132;16.848;2022-12-15T14:15:39;19.37;;;13.57;;
21424;SDS011;10873;51.132;16.848;2022-12-15T14:18:17;16.70;;;12.67;;
21424;SDS011;10873;51.132;16.848;2022-12-15T14:20:48;21.90;;;13.23;;
21424;SDS011;10873;51.132;16.848;2022-12-15T14:23:16;22.47;;;14.77;;
21424;SDS011;10873;51.132;16.848;2022-12-15T14:25:52;25.13;;;13.83;;
21424;SDS011;10873;51.132;16.848;2022-12-15T14:28:26;22.37;;;13.40;;
21424;SDS011;10873;51.132;16.848;2022-12-15T14:30:56;25.37;;;13.60;;
21424;SDS011;10873;51.132;16.848;2022-12-15T14:33:24;25.27;;;13.67;;
21424;SDS011;10873;51.132;16.848;2022-12-15T14:35:52;20.30;;;13.07;;
21424;SDS011;10873;51.132;16.848;2022-12-15T14:38:20;22.87;;;12.07;;
21424;SDS011;10873;51.132;16.848;2022-12-15T14:40:49;17.73;;;11.73;;
21424;SDS011;10873;51.132;16.848;2022-12-15T14:43:20;19.40;;;12.90;;
21424;SDS011;10873;51.132;16.848;2022-12-15T14:45:49;26.77;;;12.93;;
21424;SDS011;10873;51.132;16.848;2022-12-15T14:48:21;18.27;;;13.73;;
21424;SDS011;10873;51.132;16.848;2022-12-15T14:50:52;21.37;;;14.73;;
21424;SDS011;10873;51.132;16.848;2022-12-15T14:53:19;27.03;;;17.13;;
21424;SDS011;10873;51.132;16.848;2022-12-15T14:55:47;26.63;;;17.93;;
21424;SDS011;10873;51.132;16.848;2022-12-15T14:58:30;29.60;;;18.70;;
21424;SDS011;10873;51.132;16.848;2022-12-15T15:00:59;29.43;;;19.87;;
21424;SDS011;10873;51.132;16.848;2022-12-15T15:03:33;29.73;;;18.80;;
21424;SDS011;10873;51.132;16.848;2022-12-15T15:06:02;31.40;;;19.90;;
21424;SDS011;10873;51.132;16.848;2022-12-15T15:08:32;27.90;;;19.33;;
21424;SDS011;10873;51.132;16.848;2022-12-15T15:11:00;30.87;;;19.10;;
21424;SDS011;10873;51.132;16.848;2022-12-15T15:13:33;30.13;;;18.77;;
21424;SDS011;10873;51.132;16.848;2022-12-15T15:16:03;26.17;;;18.13;;
21424;SDS011;10873;51.132;16.848;2022-12-15T15:18:31;26.60;;;18.20;;
21424;SDS011;10873;51.132;16.848;2022-12-15T15:20:57;31.47;;;17.80;;
21424;SDS011;10873;51.132;16.848;2022-12-15T15:23:27;29.83;;;19.43;;
21424;SDS011;10873;51.132;16.848;2022-12-15T15:25:54;45.67;;;25.40;;